CYGR

Îles-de-la-Madeleine Airport

Îles-de-la-Madeleine, Quebec, Canada
METAR CYGR 222100Z 29010KT 20SM FEW270 02/M04 A3016 RMK CI1 CI TR SLP214
Observed Flight Rules
Apr-22 @ 21:00 UTC (34 minutes ago) Visual Flight Rules
Wind Visibility Clouds
290° at 10 knots 20 miles
  • Few at 27,000' AGL
Temperatures Readings
Current 2°C / 36°F
Dewpoint -4°C / 25°F
Humidity 65%
Altimeter 30.16" Hg
Pressure 1021.4 hPa
Elevation 10
METAR CYGR 222100Z 29010KT 20SM FEW270 02/M04 A3016 RMK CI1 CI TR SLP214
Observed Flight Rules
Apr-22 @ 21:00 UTC
(34 minutes ago)
VFR
Wind Visibility
290° at 10 knots 20 miles
Clouds
  • Few at 27,000' AGL
Temperature Dewpoint
2°C / 36°F -4°C / 25°F
Humidity Altimeter Pressure
65% 30.16" Hg 1021.4 hPa